Time;durP1;ratioP1;P1;durP2;ratioP2;P2;SDS_P1;SDS_P2;PMS_P1;PMS_P2;Temp;Humidity;BMP_temperature;BMP_pressure;BME280_temperature;BME280_humidity;BME280_pressure;Samples;Min_cycle;Max_cycle;Signal;HPM_P1;HPM_P2
2023/05/21 00:02:17;;;;;;;1999.90;999.90;;;;;;;15.84;100.00;94951.41;5063314;28;20205;-59
2023/05/21 00:04:43;;;;;;;1999.90;999.90;;;;;;;15.87;100.00;94947.75;5063059;28;20198;-60
2023/05/21 00:07:09;;;;;;;1999.90;999.90;;;;;;;15.73;100.00;94944.72;5063598;28;20170;-59
2023/05/21 00:09:37;;;;;;;1999.90;999.90;;;;;;;15.80;100.00;94945.25;5063338;28;20209;-59
2023/05/21 00:12:03;;;;;;;1999.90;999.90;;;;;;;15.75;100.00;94943.09;5062886;28;20209;-59
2023/05/21 00:14:29;;;;;;;1999.90;999.90;;;;;;;15.77;100.00;94940.63;5063126;28;20205;-59
2023/05/21 00:16:54;;;;;;;1999.90;999.90;;;;;;;15.69;100.00;94933.06;5046526;28;20205;-59
2023/05/21 00:19:20;;;;;;;1999.90;999.90;;;;;;;15.67;100.00;94936.28;5065164;28;20213;-60
2023/05/21 00:21:45;;;;;;;1999.90;999.90;;;;;;;15.69;100.00;94933.06;5066583;28;20204;-59
2023/05/21 00:24:10;;;;;;;1999.90;999.90;;;;;;;15.68;100.00;94932.31;5066787;28;20199;-60
2023/05/21 00:26:36;;;;;;;1999.90;999.90;;;;;;;15.65;100.00;94922.19;5050104;28;20209;-60
2023/05/21 00:29:02;;;;;;;1999.90;999.90;;;;;;;15.65;100.00;94927.69;5066861;28;20269;-59
2023/05/21 00:31:27;;;;;;;1999.90;999.90;;;;;;;15.59;100.00;94929.47;5050295;28;20269;-60
2023/05/21 00:33:52;;;;;;;1999.90;999.90;;;;;;;15.52;100.00;94918.72;5066791;28;20202;-60
2023/05/21 00:36:22;;;;;;;1999.90;999.90;;;;;;;15.42;100.00;94919.88;5066511;28;20202;-60
2023/05/21 00:38:48;;;;;;;1999.90;999.90;;;;;;;15.32;100.00;94923.72;5066229;28;20218;-60
2023/05/21 00:41:14;;;;;;;1999.90;999.90;;;;;;;15.24;100.00;94924.41;5050296;28;20277;-60
2023/05/21 00:43:39;;;;;;;1999.90;999.90;;;;;;;15.19;100.00;94920.22;5066384;28;20214;-60
2023/05/21 00:46:16;;;;;;;1999.90;999.90;;;;;;;15.18;100.00;94915.94;5066621;28;20228;-60
2023/05/21 00:48:45;;;;;;;1999.90;999.90;;;;;;;15.14;100.00;94925.53;5066642;28;20205;-59
2023/05/21 00:51:12;;;;;;;1999.90;999.90;;;;;;;15.09;100.00;94918.63;5066004;28;20197;-58
2023/05/21 00:53:38;;;;;;;1999.90;999.90;;;;;;;15.07;100.00;94921.03;5065962;28;20193;-59
2023/05/21 00:56:04;;;;;;;1999.90;999.90;;;;;;;15.01;100.00;94906.28;5049594;28;20257;-58
2023/05/21 00:58:32;;;;;;;1999.90;999.90;;;;;;;15.04;100.00;94915.66;5049441;28;20195;-58
2023/05/21 01:01:02;;;;;;;1999.90;999.90;;;;;;;15.00;100.00;94910.25;5065761;28;20197;-59
2023/05/21 01:03:29;;;;;;;1999.90;999.90;;;;;;;14.93;100.00;94907.00;5049363;28;20214;-59
2023/05/21 01:05:58;;;;;;;1999.90;999.90;;;;;;;14.85;100.00;94903.69;5049561;28;20205;-58
2023/05/21 01:08:26;;;;;;;1999.90;999.90;;;;;;;14.86;100.00;94910.72;5066169;28;20204;-59
2023/05/21 01:10:52;;;;;;;1999.90;999.90;;;;;;;14.68;100.00;94916.00;5065559;28;20198;-59
2023/05/21 01:13:21;;;;;;;1999.90;999.90;;;;;;;14.85;100.00;94909.19;5065616;28;20213;-59
2023/05/21 01:15:48;;;;;;;1999.90;999.90;;;;;;;14.88;100.00;94908.31;5065882;28;20209;-59
2023/05/21 01:18:14;;;;;;;1999.90;999.90;;;;;;;14.86;100.00;94909.97;5065466;28;20209;-58
2023/05/21 01:20:41;;;;;;;1999.90;999.90;;;;;;;14.83;100.00;94900.59;5049428;28;20224;-59
2023/05/21 01:23:07;;;;;;;1999.90;999.90;;;;;;;14.80;100.00;94906.22;5049070;28;20197;-59
2023/05/21 01:25:33;;;;;;;1999.90;999.90;;;;;;;14.83;100.00;94905.34;5065600;28;20193;-59
2023/05/21 01:27:59;;;;;;;1999.90;999.90;;;;;;;14.84;100.00;94896.66;5048702;28;20269;-59
2023/05/21 01:30:24;;;;;;;1999.90;999.90;;;;;;;14.83;100.00;94906.09;5065036;28;20162;-59
2023/05/21 01:33:02;;;;;;;1999.90;999.90;;;;;;;14.80;100.00;94907.00;5065829;28;20219;-59
2023/05/21 01:35:35;;;;;;;1999.90;999.90;;;;;;;14.76;100.00;94906.34;5065295;28;20247;-59
2023/05/21 01:38:21;;;;;;;1999.90;999.90;;;;;;;14.82;100.00;94903.81;5048959;28;20206;-58
2023/05/21 01:40:50;;;;;;;1999.90;999.90;;;;;;;14.76;100.00;94906.34;5048656;28;20220;-58
2023/05/21 01:43:17;;;;;;;1999.90;999.90;;;;;;;14.74;100.00;94900.50;5048577;28;20190;-59
2023/05/21 01:45:44;;;;;;;1999.90;999.90;;;;;;;14.70;100.00;94899.09;5065062;28;20193;-58
2023/05/21 01:48:11;;;;;;;1999.90;999.90;;;;;;;14.73;100.00;94896.25;5065281;28;20221;-59
2023/05/21 01:50:39;;;;;;;1999.90;999.90;;;;;;;14.74;100.00;94902.47;5065407;28;20205;-59
2023/05/21 01:53:04;;;;;;;1999.90;999.90;;;;;;;14.69;100.00;94900.31;5065099;28;20194;-59
2023/05/21 01:55:31;;;;;;;1999.90;999.90;;;;;;;14.62;100.00;94900.53;5064765;28;20201;-59
2023/05/21 01:57:57;;;;;;;1999.90;999.90;;;;;;;14.63;100.00;94894.59;5065143;28;20221;-59
2023/05/21 02:00:25;;;;;;;1999.90;999.90;;;;;;;14.58;100.00;94895.16;5065071;28;20237;-59
2023/05/21 02:02:51;;;;;;;1999.90;999.90;;;;;;;14.57;100.00;94888.09;5064969;28;20205;-58
2023/05/21 02:05:17;;;;;;;1999.90;999.90;;;;;;;14.54;100.00;94900.00;5064922;28;20287;-59
2023/05/21 02:07:44;;;;;;;1999.90;999.90;;;;;;;14.50;100.00;94893.81;5064560;28;20200;-59
2023/05/21 02:10:10;;;;;;;1999.90;999.90;;;;;;;14.43;100.00;94887.78;5064717;28;20202;-59
2023/05/21 02:12:35;;;;;;;1999.90;999.90;;;;;;;14.33;100.00;94889.66;5064596;28;20198;-59
2023/05/21 02:15:01;;;;;;;1999.90;999.90;;;;;;;14.28;100.00;94887.44;5048034;28;20200;-59
2023/05/21 02:17:30;;;;;;;1999.90;999.90;;;;;;;14.27;100.00;94888.66;5064354;28;20187;-62
2023/05/21 02:19:56;;;;;;;1999.90;999.90;;;;;;;14.22;100.00;94889.22;5065006;28;20193;-58
2023/05/21 02:22:21;;;;;;;1999.90;999.90;;;;;;;14.19;100.00;94895.53;5064844;28;20231;-59
2023/05/21 02:24:46;;;;;;;1999.90;999.90;;;;;;;14.14;100.00;94892.56;5047829;28;20197;-59
2023/05/21 02:27:12;;;;;;;1999.90;999.90;;;;;;;14.15;100.00;94883.91;5064559;28;20225;-59
2023/05/21 02:29:38;;;;;;;1999.90;999.90;;;;;;;14.13;100.00;94882.81;5064659;28;20197;-59
2023/05/21 02:32:04;;;;;;;1999.90;999.90;;;;;;;14.10;100.00;94876.22;5047734;28;20194;-60
2023/05/21 02:34:35;;;;;;;1999.90;999.90;;;;;;;14.09;100.00;94877.41;5063978;28;20225;-59
2023/05/21 02:37:00;;;;;;;1999.90;999.90;;;;;;;14.09;100.00;94884.91;5064545;28;20197;-59
2023/05/21 02:39:26;;;;;;;1999.90;999.90;;;;;;;14.15;100.00;94878.41;5064135;28;20243;-60
2023/05/21 02:41:51;;;;;;;1999.90;999.90;;;;;;;14.18;100.00;94876.75;5047689;28;20201;-58
2023/05/21 02:44:18;;;;;;;1999.90;999.90;;;;;;;14.17;100.00;94875.22;5063963;28;20190;-60
2023/05/21 02:46:43;;;;;;;1999.90;999.90;;;;;;;14.20;100.00;94886.09;5064093;28;20194;-60
2023/05/21 02:49:09;;;;;;;1999.90;999.90;;;;;;;14.12;100.00;94890.25;5047310;28;20288;-60
2023/05/21 02:51:34;;;;;;;1999.90;999.90;;;;;;;14.08;100.00;94884.13;5064281;28;20197;-60
2023/05/21 02:53:59;;;;;;;1999.90;999.90;;;;;;;14.05;100.00;94895.19;5064299;28;20202;-60
2023/05/21 02:56:25;;;;;;;1999.90;999.90;;;;;;;13.94;100.00;94901.00;5064370;28;20280;-60
2023/05/21 02:58:50;;;;;;;1999.90;999.90;;;;;;;13.84;100.00;94891.09;5063878;28;20232;-60
2023/05/21 03:01:16;;;;;;;1999.90;999.90;;;;;;;13.77;100.00;94888.53;5047109;28;20414;-60
2023/05/21 03:03:41;;;;;;;1999.90;999.90;;;;;;;13.75;100.00;94885.47;5047064;28;20265;-60
2023/05/21 03:06:08;;;;;;;1999.90;999.90;;;;;;;13.63;100.00;94885.44;5063624;28;20217;-60
2023/05/21 03:08:35;;;;;;;1999.90;999.90;;;;;;;13.58;100.00;94884.00;5064080;28;20189;-60
2023/05/21 03:11:00;;;;;;;1999.90;999.90;;;;;;;13.57;100.00;94876.97;5063615;28;20190;-60
2023/05/21 03:13:26;;;;;;;1999.90;999.90;;;;;;;13.58;100.00;94878.50;5047197;28;20200;-60
2023/05/21 03:15:55;;;;;;;1999.90;999.90;;;;;;;13.60;100.00;94876.13;5063585;28;20190;-60
2023/05/21 03:18:21;;;;;;;1999.90;999.90;;;;;;;13.58;100.00;94873.03;5047305;28;20170;-60
2023/05/21 03:20:46;;;;;;;1999.90;999.90;;;;;;;13.57;100.00;94876.97;5064158;28;20202;-60
2023/05/21 03:23:12;;;;;;;1999.90;999.90;;;;;;;13.58;100.00;94875.75;5047155;28;20202;-60
2023/05/21 03:25:38;;;;;;;1999.90;999.90;;;;;;;13.57;100.00;94876.97;5063581;28;20186;-60
2023/05/21 03:28:05;;;;;;;1999.90;999.90;;;;;;;13.55;100.00;94879.38;5063760;28;20327;-62
2023/05/21 03:30:31;;;;;;;1999.90;999.90;;;;;;;13.49;100.00;94875.66;5046921;28;20198;-60
2023/05/21 03:32:56;;;;;;;1999.90;999.90;;;;;;;13.46;100.00;94870.25;5046709;28;20198;-61
2023/05/21 03:35:21;;;;;;;1999.90;999.90;;;;;;;13.43;100.00;94876.63;5063520;28;20243;-60
2023/05/21 03:37:47;;;;;;;1999.90;999.90;;;;;;;13.41;100.00;94868.81;5063357;28;20193;-61
2023/05/21 03:40:12;;;;;;;1999.90;999.90;;;;;;;13.39;100.00;94876.69;5063488;28;20206;-60
2023/05/21 03:42:38;;;;;;;1999.90;999.90;;;;;;;13.46;100.00;94862.78;5046838;28;20204;-59
2023/05/21 03:45:05;;;;;;;1999.90;999.90;;;;;;;13.42;100.00;94864.88;5063591;28;20194;-62
2023/05/21 03:47:31;;;;;;;1999.90;999.90;;;;;;;13.42;100.00;94864.88;5047086;28;20193;-60
2023/05/21 03:49:56;;;;;;;1999.90;999.90;;;;;;;13.41;100.00;94863.34;5063863;28;20176;-60
2023/05/21 03:52:21;;;;;;;1999.90;999.90;;;;;;;12.96;100.00;94865.28;5063291;28;20204;-60
2023/05/21 03:54:47;;;;;;;1999.90;999.90;;;;;;;12.85;100.00;94851.88;5066320;28;20201;-60
2023/05/21 03:57:12;;;;;;;1999.90;999.90;;;;;;;13.38;100.00;94855.97;5067080;28;20205;-60
2023/05/21 03:59:37;;;;;;;1999.90;999.90;;;;;;;13.43;100.00;94857.41;5067066;28;20217;-60
2023/05/21 04:02:03;;;;;;;1999.90;999.90;;;;;;;13.38;100.00;94858.72;5067346;28;20209;-60
2023/05/21 04:04:28;;;;;;;1999.90;999.90;;;;;;;13.26;100.00;94873.16;5066647;28;20261;-60
2023/05/21 04:06:54;;;;;;;1999.90;999.90;;;;;;;13.23;100.00;94868.53;5067203;28;20210;-60
2023/05/21 04:09:19;;;;;;;1999.90;999.90;;;;;;;13.28;100.00;94862.50;5066891;28;20201;-61
2023/05/21 04:11:45;;;;;;;1999.90;999.90;;;;;;;13.28;100.00;94866.03;5066900;28;20208;-60
2023/05/21 04:14:11;;;;;;;1999.90;999.90;;;;;;;13.32;100.00;94865.16;5067061;28;20194;-60
2023/05/21 04:16:37;;;;;;;1999.90;999.90;;;;;;;13.42;100.00;94864.09;5067157;28;20201;-60
2023/05/21 04:19:03;;;;;;;1999.90;999.90;;;;;;;13.52;100.00;94868.50;5066510;28;20219;-60
2023/05/21 04:21:28;;;;;;;1999.90;999.90;;;;;;;13.55;100.00;94873.13;5050451;28;20205;-60
2023/05/21 04:23:56;;;;;;;1999.90;999.90;;;;;;;13.48;100.00;94868.63;5066896;28;20200;-60
2023/05/21 04:26:22;;;;;;;1999.90;999.90;;;;;;;13.55;100.00;94868.41;5066865;28;20264;-60
2023/05/21 04:28:49;;;;;;;1999.90;999.90;;;;;;;13.59;100.00;94871.84;5050198;28;20268;-60
2023/05/21 04:31:14;;;;;;;1999.90;999.90;;;;;;;13.67;100.00;94870.44;5049840;28;20264;-60
2023/05/21 04:33:44;;;;;;;1999.90;999.90;;;;;;;13.70;100.00;94872.31;5066511;28;20193;-60
2023/05/21 04:36:10;;;;;;;1999.90;999.90;;;;;;;13.66;100.00;94879.84;5066726;28;20193;-59
2023/05/21 04:38:35;;;;;;;1999.90;999.90;;;;;;;13.70;100.00;94877.81;5049629;28;20202;-59
2023/05/21 04:41:02;;;;;;;1999.90;999.90;;;;;;;13.77;100.00;94880.31;5066465;28;20194;-59
2023/05/21 04:43:28;;;;;;;1999.90;999.90;;;;;;;13.87;100.00;94873.75;5066397;28;20190;-60
2023/05/21 04:45:54;;;;;;;1999.90;999.90;;;;;;;14.02;100.00;94877.63;5066471;28;20197;-60
2023/05/21 04:48:24;;;;;;;1999.90;999.90;;;;;;;14.16;100.00;94879.94;5049355;28;20198;-63
2023/05/21 04:50:50;;;;;;;1999.90;999.90;;;;;;;14.38;100.00;94882.84;5066497;28;20255;-60
2023/05/21 04:53:16;;;;;;;1999.90;999.90;;;;;;;14.44;100.00;94881.84;5066396;28;20289;-60
2023/05/21 04:55:41;;;;;;;1999.90;999.90;;;;;;;14.53;100.00;94892.94;5066279;28;20198;-59
2023/05/21 04:58:09;;;;;;;1999.90;999.90;;;;;;;14.74;100.00;94897.75;5065895;28;20228;-59
2023/05/21 05:00:36;;;;;;;1999.90;999.90;;;;;;;14.95;100.00;94890.81;5066426;28;20209;-60
2023/05/21 05:03:02;;;;;;;1999.90;999.90;;;;;;;14.93;100.00;94890.50;5065766;28;20201;-59
2023/05/21 05:05:27;;;;;;;1999.90;999.90;;;;;;;14.92;100.00;94895.22;5049262;28;20198;-61
2023/05/21 05:07:52;;;;;;;1999.90;999.90;;;;;;;15.22;100.00;94889.06;5066074;28;20197;-60
2023/05/21 05:10:17;;;;;;;1999.90;999.90;;;;;;;15.31;100.00;94889.16;5065849;28;20205;-60
2023/05/21 05:12:43;;;;;;;1999.90;999.90;;;;;;;15.21;100.00;94893.06;5066408;28;20204;-60
2023/05/21 05:15:08;;;;;;;1999.90;999.90;;;;;;;15.49;100.00;94886.59;5065609;28;20201;-60
2023/05/21 05:17:34;;;;;;;1999.90;999.90;;;;;;;15.51;100.00;94895.16;5048716;28;20220;-61
2023/05/21 05:19:59;;;;;;;1999.90;999.90;;;;;;;15.54;100.00;94894.28;5049139;28;20204;-59
2023/05/21 05:22:25;;;;;;;1999.90;999.90;;;;;;;15.67;100.00;94892.22;5049235;28;20205;-59
2023/05/21 05:24:51;;;;;;;1999.90;999.90;;;;;;;15.67;100.00;94886.72;5066276;28;20304;-60
2023/05/21 05:27:16;;;;;;;1999.90;999.90;;;;;;;15.83;100.00;94889.28;5048774;28;20208;-60
2023/05/21 05:29:43;;;;;;;1999.90;999.90;;;;;;;15.80;100.00;94886.66;5048651;28;20205;-60
2023/05/21 05:32:09;;;;;;;1999.90;999.90;;;;;;;15.89;100.00;94890.22;5065602;28;20198;-60
2023/05/21 05:34:34;;;;;;;1999.90;999.90;;;;;;;16.02;100.00;94890.94;5049088;28;20204;-61
2023/05/21 05:37:01;;;;;;;1999.90;999.90;;;;;;;16.21;100.00;94895.31;5065307;28;20202;-60
2023/05/21 05:39:27;;;;;;;1999.90;999.90;;;;;;;16.05;100.00;94898.31;5048549;28;20224;-60
2023/05/21 05:41:52;;;;;;;1999.90;999.90;;;;;;;16.59;100.00;94886.03;5065291;28;20202;-60
2023/05/21 05:44:18;;;;;;;1999.90;999.90;;;;;;;16.78;100.00;94884.88;5048665;28;20197;-60
2023/05/21 05:46:43;;;;;;;1999.90;999.90;;;;;;;16.92;100.00;94885.06;5065041;28;20213;-59
2023/05/21 05:49:08;;;;;;;1999.90;999.90;;;;;;;16.75;100.00;94889.31;5048840;28;20170;-59
2023/05/21 05:51:34;;;;;;;1999.90;999.90;;;;;;;16.97;100.00;94897.50;5065575;28;20198;-58
2023/05/21 05:54:00;;;;;;;1999.90;999.90;;;;;;;17.22;100.00;94897.25;5064835;28;20194;-60
2023/05/21 05:56:25;;;;;;;1999.90;999.90;;;;;;;16.92;100.00;94900.84;5064746;28;20201;-60
2023/05/21 05:58:51;;;;;;;1999.90;999.90;;;;;;;17.29;100.00;94902.44;5064729;28;20221;-61
2023/05/21 06:01:16;;;;;;;1999.90;999.90;;;;;;;17.35;100.00;94893.13;5064670;28;20209;-60
2023/05/21 06:03:41;;;;;;;1999.90;999.90;;;;;;;17.58;100.00;94894.53;5064833;28;20225;-60
2023/05/21 06:06:07;;;;;;;1999.90;999.90;;;;;;;17.93;100.00;94898.50;5048027;28;20194;-60
2023/05/21 06:08:33;;;;;;;1999.90;999.90;;;;;;;18.23;100.00;94894.75;5064496;28;20204;-60
2023/05/21 06:10:59;;;;;;;1999.90;999.90;;;;;;;18.47;100.00;94906.72;5064354;28;20200;-60
2023/05/21 06:13:24;;;;;;;1999.90;999.90;;;;;;;18.64;100.00;94900.34;5048034;28;20194;-60
2023/05/21 06:15:50;;;;;;;1999.90;999.90;;;;;;;19.23;100.00;94896.66;5064291;28;20194;-60
2023/05/21 06:18:15;;;;;;;1999.90;999.90;;;;;;;19.69;100.00;94894.38;5064318;28;20201;-58
2023/05/21 06:20:41;;;;;;;1999.90;999.90;;;;;;;20.40;100.00;94889.38;5047700;28;20204;-59
2023/05/21 06:23:07;;;;;;;1999.90;999.90;;;;;;;20.81;100.00;94888.31;5047884;28;20201;-62
2023/05/21 06:25:33;;;;;;;1999.90;999.90;;;;;;;20.80;100.00;94897.13;5064688;28;20209;-60
2023/05/21 06:27:58;;;;;;;1999.90;999.90;;;;;;;20.99;100.00;94890.91;5064257;28;20201;-59
2023/05/21 06:30:24;;;;;;;1999.90;999.90;;;;;;;21.45;100.00;94894.53;5064251;28;20204;-60
2023/05/21 06:32:49;;;;;;;1999.90;999.90;;;;;;;21.10;100.00;94893.84;5047970;28;20198;-61
2023/05/21 06:35:15;;;;;;;1999.90;999.90;;;;;;;21.56;100.00;94897.47;5048028;28;20273;-60
2023/05/21 06:37:40;;;;;;;1999.90;999.90;;;;;;;20.94;100.00;94907.47;5064019;28;20198;-60
2023/05/21 06:40:06;;;;;;;1999.90;999.90;;;;;;;20.70;100.00;94904.03;5063960;28;20229;-59
2023/05/21 06:42:31;;;;;;;1999.90;999.90;;;;;;;21.35;100.00;94893.16;5048167;28;20200;-59
2023/05/21 06:44:58;;;;;;;1999.90;999.90;;;;;;;21.43;100.00;94899.06;5047478;28;20221;-59
2023/05/21 06:47:23;;;;;;;1999.90;999.90;;;;;;;22.18;100.00;94903.28;5063976;28;20190;-60
2023/05/21 06:49:49;;;;;;;1999.90;999.90;;;;;;;21.47;100.00;94908.75;5047318;28;20190;-60
2023/05/21 06:52:14;;;;;;;1999.90;999.90;;;;;;;21.38;100.00;94906.06;5064441;28;20170;-60
2023/05/21 06:54:41;;;;;;;1999.90;999.90;;;;;;;21.39;100.00;94912.41;5064290;28;20213;-62
2023/05/21 06:57:06;;;;;;;1999.90;999.90;;;;;;;21.51;100.00;94923.19;5063784;28;20208;-61
2023/05/21 06:59:32;;;;;;;1999.90;999.90;;;;;;;21.27;100.00;94917.03;5047341;28;20210;-63
2023/05/21 07:01:57;;;;;;;1999.90;999.90;;;;;;;21.68;100.00;94915.81;5047154;28;20193;-63
2023/05/21 07:04:22;;;;;;;1999.90;999.90;;;;;;;21.59;100.00;94917.97;5063745;28;20296;-64
2023/05/21 07:06:48;;;;;;;1999.90;999.90;;;;;;;21.42;100.00;94920.53;5063684;28;20247;-63
2023/05/21 07:09:13;;;;;;;1999.90;999.90;;;;;;;21.85;100.00;94916.81;5063661;28;20205;-63
2023/05/21 07:11:38;;;;;;;1999.90;999.90;;;;;;;21.80;100.00;94922.31;5063659;28;20201;-63
2023/05/21 07:14:04;;;;;;;1999.90;999.90;;;;;;;21.53;100.00;94926.22;5047085;28;20189;-63
2023/05/21 07:16:29;;;;;;;1999.90;999.90;;;;;;;21.95;100.00;94918.22;5064287;28;20189;-63
2023/05/21 07:18:54;;;;;;;1999.90;999.90;;;;;;;21.97;100.00;94914.94;5064016;28;20229;-63
2023/05/21 07:21:20;;;;;;;1999.90;999.90;;;;;;;21.94;100.00;94913.91;5064097;28;20193;-62
2023/05/21 07:23:45;;;;;;;1999.90;999.90;;;;;;;22.41;100.00;94915.41;5047366;28;20204;-60
2023/05/21 07:26:10;;;;;;;1999.90;999.90;;;;;;;22.04;100.00;94920.81;5063722;28;20277;-61
2023/05/21 07:28:36;;;;;;;1999.90;999.90;;;;;;;21.12;100.00;94918.34;5064606;28;20209;-62
2023/05/21 07:31:01;;;;;;;1999.90;999.90;;;;;;;21.75;100.00;94914.69;5067720;28;20205;-62
2023/05/21 07:33:27;;;;;;;1999.90;999.90;;;;;;;21.62;100.00;94923.34;5067963;28;20204;-62
2023/05/21 07:35:52;;;;;;;1999.90;999.90;;;;;;;21.32;100.00;94921.16;5068004;28;20193;-61
2023/05/21 07:38:17;;;;;;;1999.90;999.90;;;;;;;22.05;100.00;94918.81;5050949;28;20225;-62
2023/05/21 07:40:43;;;;;;;1999.90;999.90;;;;;;;22.35;100.00;94909.78;5067562;28;20216;-60
2023/05/21 07:43:08;;;;;;;1999.90;999.90;;;;;;;22.41;100.00;94910.59;5067862;28;20262;-62
2023/05/21 07:45:34;;;;;;;1999.90;999.90;;;;;;;22.76;100.00;94909.66;5067152;28;20197;-61
2023/05/21 07:47:59;;;;;;;1999.90;999.90;;;;;;;23.01;100.00;94911.66;5067358;28;20197;-63
2023/05/21 07:50:25;;;;;;;1999.90;999.90;;;;;;;22.86;100.00;94916.56;5050826;28;20263;-61
2023/05/21 07:52:50;;;;;;;1999.90;999.90;;;;;;;22.72;100.00;94914.69;5050932;28;20189;-59
2023/05/21 07:55:16;;;;;;;1999.90;999.90;;;;;;;23.33;99.13;94905.53;5067804;28;20166;-59
2023/05/21 07:57:41;;;;;;;1999.90;999.90;;;;;;;22.64;100.00;94911.59;5050773;28;20194;-60
2023/05/21 08:00:12;;;;;;;1999.90;999.90;;;;;;;22.29;100.00;94920.09;5067190;28;20202;-59
2023/05/21 08:02:38;;;;;;;1999.90;999.90;;;;;;;21.93;100.00;94920.69;5067180;28;20225;-60
2023/05/21 08:05:04;;;;;;;1999.90;999.90;;;;;;;21.81;100.00;94919.03;5050299;28;20200;-58
2023/05/21 08:07:30;;;;;;;1999.90;999.90;;;;;;;21.93;100.00;94920.69;5066795;28;20198;-58
2023/05/21 08:09:56;;;;;;;1999.90;999.90;;;;;;;21.38;100.00;94922.75;5066859;28;20292;-67
2023/05/21 08:12:21;;;;;;;1999.90;999.90;;;;;;;21.24;100.00;94931.88;5067073;28;20193;-59
2023/05/21 08:14:46;;;;;;;1999.90;999.90;;;;;;;21.69;100.00;94928.47;5066728;28;20194;-64
2023/05/21 08:17:12;;;;;;;1999.90;999.90;;;;;;;21.50;100.00;94930.00;5050628;28;20186;-63
2023/05/21 08:19:37;;;;;;;1999.90;999.90;;;;;;;21.82;100.00;94928.91;5050188;28;20209;-61
2023/05/21 08:22:05;;;;;;;1999.90;999.90;;;;;;;21.58;100.00;94922.78;5067082;28;20193;-61
2023/05/21 08:24:30;;;;;;;1999.90;999.90;;;;;;;21.57;100.00;94932.34;5049850;28;20201;-60
2023/05/21 08:26:56;;;;;;;1999.90;999.90;;;;;;;21.73;100.00;94929.06;5050282;28;20277;-59
2023/05/21 08:29:21;;;;;;;1999.90;999.90;;;;;;;21.59;100.00;94929.84;5067021;28;20193;-59
2023/05/21 08:31:46;;;;;;;1999.90;999.90;;;;;;;21.58;100.00;94933.91;5066550;28;20257;-59
2023/05/21 08:34:12;;;;;;;1999.90;999.90;;;;;;;21.61;100.00;94943.28;5066865;28;20197;-59
2023/05/21 08:36:37;;;;;;;1999.90;999.90;;;;;;;21.98;100.00;94928.34;5049642;28;20197;-59
2023/05/21 08:39:03;;;;;;;1999.90;999.90;;;;;;;22.16;100.00;94939.19;5049811;28;20201;-59
2023/05/21 08:41:30;;;;;;;1999.90;999.90;;;;;;;21.84;100.00;94933.97;5066269;28;20200;-59
2023/05/21 08:43:59;;;;;;;1999.90;999.90;;;;;;;21.96;100.00;94941.22;5066804;28;20193;-59
2023/05/21 08:46:24;;;;;;;1999.90;999.90;;;;;;;22.14;100.00;94938.91;5049957;28;20194;-61
2023/05/21 08:48:53;;;;;;;1999.90;999.90;;;;;;;22.43;100.00;94932.34;5049720;28;20196;-58
2023/05/21 08:51:20;;;;;;;1999.90;999.90;;;;;;;22.80;100.00;94932.50;5066344;28;20235;-58
2023/05/21 08:53:45;;;;;;;1999.90;999.90;;;;;;;22.32;100.00;94927.47;5066428;28;20170;-59
2023/05/21 08:56:11;;;;;;;1999.90;999.90;;;;;;;22.58;100.00;94935.81;5066033;28;20288;-59
2023/05/21 08:58:41;;;;;;;1999.90;999.90;;;;;;;22.81;100.00;94937.56;5066141;28;20198;-59
2023/05/21 09:01:06;;;;;;;1999.90;999.90;;;;;;;22.93;100.00;94935.63;5066455;28;20205;-59
2023/05/21 09:03:32;;;;;;;1999.90;999.90;;;;;;;22.95;100.00;94930.31;5049207;28;20212;-59
2023/05/21 09:05:59;;;;;;;1999.90;999.90;;;;;;;23.03;100.00;94928.63;5049226;28;20194;-59
2023/05/21 09:08:31;;;;;;;1999.90;999.90;;;;;;;23.45;100.00;94934.25;5065897;28;20204;-61
2023/05/21 09:10:57;;;;;;;1999.90;999.90;;;;;;;23.98;100.00;94932.28;5065806;28;20411;-62
2023/05/21 09:13:24;;;;;;;1999.90;999.90;;;;;;;23.72;100.00;94933.66;5049119;28;20192;-63
2023/05/21 09:15:50;;;;;;;1999.90;999.90;;;;;;;23.59;100.00;94930.53;5065914;28;20186;-63
2023/05/21 09:18:16;;;;;;;1999.90;999.90;;;;;;;23.76;100.00;94931.38;5065873;28;20190;-62
2023/05/21 09:20:42;;;;;;;1999.90;999.90;;;;;;;24.15;100.00;94932.34;5048836;28;20197;-62
2023/05/21 09:23:15;;;;;;;1999.90;999.90;;;;;;;24.42;100.00;94931.63;5066089;28;20221;-62
2023/05/21 09:25:44;;;;;;;1999.90;999.90;;;;;;;24.62;100.00;94934.25;5065854;28;20204;-63
2023/05/21 09:28:17;;;;;;;1999.90;999.90;;;;;;;24.68;100.00;94932.22;5065536;28;20198;-62
2023/05/21 09:30:46;;;;;;;1999.90;999.90;;;;;;;24.56;100.00;94933.44;5065638;28;20198;-62
2023/05/21 09:33:23;;;;;;;1999.90;999.90;;;;;;;25.11;100.00;94927.91;5065413;28;20204;-63
2023/05/21 09:35:49;;;;;;;1999.90;999.90;;;;;;;26.01;96.04;94933.63;5065476;28;20202;-62
2023/05/21 09:38:15;;;;;;;1999.90;999.90;;;;;;;26.05;90.01;94933.34;5065466;28;20193;-61
2023/05/21 09:40:47;;;;;;;1999.90;999.90;;;;;;;26.30;82.81;94924.59;5065346;28;20216;-63
2023/05/21 09:43:14;;;;;;;1999.90;999.90;;;;;;;26.57;81.25;94918.06;5048966;28;20181;-63
2023/05/21 09:45:50;;;;;;;1999.90;999.90;;;;;;;27.11;80.83;94921.00;5065692;28;20197;-64
2023/05/21 09:48:16;;;;;;;1999.90;999.90;;;;;;;26.83;80.57;94924.00;5065505;28;20197;-62
2023/05/21 09:50:41;;;;;;;1999.90;999.90;;;;;;;26.18;75.50;94914.69;5064576;28;20197;-62
2023/05/21 09:53:12;;;;;;;1999.90;999.90;;;;;;;26.43;68.87;94919.16;5065188;28;20194;-62
2023/05/21 09:55:38;;;;;;;1999.90;999.90;;;;;;;27.10;62.62;94927.88;5065290;28;20197;-62
2023/05/21 09:58:04;;;;;;;1999.90;999.90;;;;;;;27.37;61.22;94941.72;5065688;28;20194;-62
2023/05/21 10:00:31;;;;;;;1999.90;999.90;;;;;;;27.29;58.06;94932.34;5048778;28;20236;-59
2023/05/21 10:03:00;;;;;;;1999.90;999.90;;;;;;;27.53;56.73;94931.63;5064805;28;20272;-66
2023/05/21 10:05:28;;;;;;;1999.90;999.90;;;;;;;27.52;55.65;94928.03;5064989;28;20190;-67
2023/05/21 10:07:59;;;;;;;1999.90;999.90;;;;;;;27.36;57.48;94936.63;5064578;28;20227;-66
2023/05/21 10:10:26;;;;;;;1999.90;999.90;;;;;;;26.76;58.28;94932.97;5064977;28;20315;-66
2023/05/21 10:13:13;;;;;;;1999.90;999.90;;;;;;;26.96;58.00;94929.78;5064528;28;20202;-66
2023/05/21 10:15:44;;;;;;;1999.90;999.90;;;;;;;26.36;60.42;94936.50;5048271;28;20201;-66
2023/05/21 10:18:12;;;;;;;1999.90;999.90;;;;;;;26.50;59.07;94935.41;5064296;28;20189;-65
2023/05/21 10:20:37;;;;;;;1999.90;999.90;;;;;;;27.63;55.04;94930.72;5064392;28;20210;-65
2023/05/21 10:23:04;;;;;;;1999.90;999.90;;;;;;;27.21;52.80;94934.19;5047807;28;20209;-66
2023/05/21 10:25:30;;;;;;;1999.90;999.90;;;;;;;28.24;52.93;94935.69;5064738;28;20277;-67
2023/05/21 10:27:56;;;;;;;1999.90;999.90;;;;;;;28.60;49.84;94925.00;5064586;28;20277;-64
2023/05/21 10:30:22;;;;;;;1999.90;999.90;;;;;;;29.06;51.71;94935.84;5047362;28;20197;-65
2023/05/21 10:32:48;;;;;;;1999.90;999.90;;;;;;;28.89;47.45;94932.50;5064726;28;20158;-65
2023/05/21 10:35:17;;;;;;;1999.90;999.90;;;;;;;28.13;54.65;94924.56;5064251;28;20200;-65
2023/05/21 10:37:44;;;;;;;1999.90;999.90;;;;;;;27.71;54.94;94926.03;5064547;28;20269;-65
2023/05/21 10:40:10;;;;;;;1999.90;999.90;;;;;;;27.26;54.54;94916.56;5063946;28;20213;-66
2023/05/21 10:42:42;;;;;;;1999.90;999.90;;;;;;;26.97;57.50;94911.69;5064183;28;20240;-66
2023/05/21 10:45:13;;;;;;;1999.90;999.90;;;;;;;26.75;57.48;94920.25;5047519;28;20229;-65